Terminal Aerodrome Forecast
Issued by NWS

Home | Current Version | Previous Version | Text Only | Print | Product List | Glossary On
Versions: 1 2 3 4 5 6 7 8 9 10 11 12 13 14 15 16 17 18 19 20 21
103
FTUS41 KBTV 231737
TAFMPV
TAF
KMPV 231737Z 2318/2418 13009KT P6SM SCT030 SCT200
     FM240500 07005KT P6SM VCSH OVC050
     FM240600 06005KT P6SM -FZRAPL OVC040
     FM241000 05008KT 2SM -FZRAPL BR OVC015
     FM241700 04005KT P6SM -RASNPL OVC015=

USA.gov is the U.S. government's official web portal to all federal, state and local government web resources and services.